createdAt,value
2018-05-21T00:02:28.434Z,12.51
2018-05-21T00:05:32.457Z,12.46
2018-05-21T00:08:35.717Z,12.29
2018-05-21T00:11:39.388Z,12.22
2018-05-21T00:14:42.670Z,12.18
2018-05-21T00:17:46.709Z,11.98
2018-05-21T00:20:49.969Z,11.96
2018-05-21T00:23:53.303Z,11.85
2018-05-21T00:26:56.566Z,11.88
2018-05-21T00:29:59.832Z,11.87
2018-05-21T00:33:03.090Z,11.76
2018-05-21T00:36:06.362Z,11.72
2018-05-21T00:39:09.646Z,11.61
2018-05-21T00:42:12.908Z,11.68
2018-05-21T00:45:16.187Z,11.60
2018-05-21T00:48:19.536Z,11.51
2018-05-21T00:51:23.562Z,11.45
2018-05-21T00:54:26.826Z,11.40
2018-05-21T00:57:30.107Z,11.28
2018-05-21T01:00:33.355Z,11.22
2018-05-21T01:03:37.378Z,11.20
2018-05-21T01:06:41.406Z,11.22
2018-05-21T01:09:44.713Z,11.26
2018-05-21T01:12:47.970Z,11.21
2018-05-21T01:15:51.296Z,11.17
2018-05-21T01:18:54.531Z,11.17
2018-05-21T01:21:57.824Z,11.13
2018-05-21T01:25:01.837Z,11.05
2018-05-21T01:28:06.617Z,11.01
2018-05-21T01:31:09.885Z,10.97
2018-05-21T01:34:13.910Z,10.94
2018-05-21T01:37:17.959Z,10.86
2018-05-21T01:40:21.282Z,10.81
2018-05-21T01:43:24.526Z,10.63
2018-05-21T01:46:28.587Z,10.62
2018-05-21T01:49:31.841Z,10.60
2018-05-21T01:52:35.874Z,10.55
2018-05-21T01:55:39.918Z,10.39
2018-05-21T01:58:43.178Z,10.40
2018-05-21T02:01:46.434Z,10.33
2018-05-21T02:04:50.021Z,10.38
2018-05-21T02:07:54.075Z,10.27
2018-05-21T02:10:57.345Z,10.21
2018-05-21T02:14:00.630Z,10.16
2018-05-21T02:17:04.649Z,10.24
2018-05-21T02:20:08.818Z,10.23
2018-05-21T02:23:12.060Z,10.15
2018-05-21T02:26:15.391Z,9.76
2018-05-21T02:29:19.528Z,9.72
2018-05-21T02:32:23.397Z,9.76
2018-05-21T02:35:27.434Z,9.79
2018-05-21T02:38:30.684Z,9.81
2018-05-21T02:41:33.952Z,9.75
2018-05-21T02:44:37.186Z,9.75
2018-05-21T02:47:40.451Z,9.56
2018-05-21T02:50:44.481Z,8.89
2018-05-21T02:53:49.005Z,8.75
2018-05-21T02:56:53.080Z,8.92
2018-05-21T02:59:56.321Z,9.02
2018-05-21T03:03:00.364Z,9.19
2018-05-21T03:06:03.626Z,9.17
2018-05-21T03:09:06.865Z,9.17
2018-05-21T03:12:10.122Z,9.12
2018-05-21T03:15:14.169Z,9.21
2018-05-21T03:18:18.340Z,9.25
2018-05-21T03:21:21.588Z,9.23
2018-05-21T03:24:24.843Z,9.10
2018-05-21T03:27:28.093Z,9.16
2018-05-21T03:30:31.342Z,9.16
2018-05-21T03:33:34.592Z,9.18
2018-05-21T03:36:37.863Z,9.10
2018-05-21T03:39:41.096Z,9.20
2018-05-21T03:42:45.420Z,9.17
2018-05-21T03:45:48.688Z,9.25
2018-05-21T03:48:51.937Z,9.31
2018-05-21T03:51:56.021Z,9.26
2018-05-21T03:54:59.278Z,9.21
2018-05-21T03:58:03.424Z,9.20
2018-05-21T04:01:24.379Z,9.15
2018-05-21T04:04:27.647Z,9.26
2018-05-21T04:07:31.656Z,9.33
2018-05-21T04:10:35.677Z,9.44
2018-05-21T04:13:39.693Z,9.38
2018-05-21T04:16:42.989Z,9.39
2018-05-21T04:19:46.251Z,9.16
2018-05-21T04:22:50.269Z,9.21
2018-05-21T04:25:54.281Z,9.32
2018-05-21T04:28:58.318Z,9.46
2018-05-21T04:32:02.454Z,9.46
2018-05-21T04:35:06.533Z,9.80
2018-05-21T04:38:10.506Z,10.15
2018-05-21T04:41:13.785Z,10.21
2018-05-21T04:44:17.808Z,10.38
2018-05-21T04:47:21.096Z,10.51
2018-05-21T04:50:24.481Z,10.62
2018-05-21T04:53:27.729Z,10.80
2018-05-21T04:56:31.911Z,10.76
2018-05-21T04:59:35.206Z,10.55
2018-05-21T05:02:38.533Z,10.34
2018-05-21T05:05:42.551Z,10.56
2018-05-21T05:08:45.802Z,10.68
2018-05-21T05:11:49.058Z,10.73
2018-05-21T05:14:52.410Z,10.66
2018-05-21T05:17:55.688Z,10.81
2018-05-21T05:20:59.431Z,10.97
2018-05-21T05:24:03.459Z,11.18
2018-05-21T05:27:07.281Z,11.40
2018-05-21T05:30:10.530Z,11.54
2018-05-21T05:33:14.766Z,11.81
2018-05-21T05:36:18.027Z,12.00
2018-05-21T05:39:22.204Z,12.13
2018-05-21T05:42:25.590Z,12.42
2018-05-21T05:45:30.864Z,12.85
2018-05-21T05:48:34.124Z,13.16
2018-05-21T05:51:37.471Z,13.04
2018-05-21T05:54:41.451Z,13.40
2018-05-21T05:57:44.704Z,13.71
2018-05-21T06:00:47.972Z,13.76
2018-05-21T06:03:52.018Z,14.19
2018-05-21T06:06:55.291Z,15.55
2018-05-21T06:09:59.311Z,17.08
2018-05-21T06:13:03.513Z,17.99
2018-05-21T06:16:07.564Z,18.25
2018-05-21T06:19:10.951Z,18.62
2018-05-21T06:22:14.237Z,18.39
2018-05-21T06:25:18.288Z,19.29
2018-05-21T06:28:21.552Z,18.86
2018-05-21T06:31:24.862Z,19.84
2018-05-21T06:34:28.983Z,20.36
2018-05-21T06:37:32.212Z,21.35
2018-05-21T06:40:35.481Z,21.60
2018-05-21T06:43:38.730Z,21.47
2018-05-21T06:46:42.090Z,20.51
2018-05-21T06:49:46.572Z,21.39
2018-05-21T06:52:49.829Z,21.26
2018-05-21T06:55:53.114Z,20.08
2018-05-21T06:58:57.139Z,20.79
2018-05-21T07:02:01.192Z,20.66
2018-05-21T07:05:04.484Z,20.16
2018-05-21T07:08:07.749Z,20.10
2018-05-21T07:11:11.183Z,19.86
2018-05-21T07:14:15.209Z,19.80
2018-05-21T07:17:18.506Z,19.93
2018-05-21T07:20:22.627Z,19.79
2018-05-21T07:23:26.674Z,19.08
2018-05-21T07:26:30.153Z,19.63
2018-05-21T07:29:33.450Z,19.81
2018-05-21T07:32:38.135Z,20.53
2018-05-21T07:35:41.417Z,20.33
2018-05-21T07:38:44.699Z,20.66
2018-05-21T07:41:48.069Z,20.79
2018-05-21T07:44:51.414Z,18.79
2018-05-21T07:47:54.621Z,18.87
2018-05-21T07:50:57.928Z,19.93
2018-05-21T07:54:02.151Z,19.41
2018-05-21T07:57:06.182Z,18.27
2018-05-21T08:00:09.458Z,18.56
2018-05-21T08:03:12.755Z,18.51
2018-05-21T08:06:16.088Z,19.24
2018-05-21T08:09:20.127Z,18.60
2018-05-21T08:12:24.170Z,18.53
2018-05-21T08:15:27.458Z,18.79
2018-05-21T08:18:30.713Z,19.26
2018-05-21T08:21:34.024Z,19.68
2018-05-21T08:24:37.289Z,20.69
2018-05-21T08:27:40.553Z,20.15
2018-05-21T08:30:44.573Z,20.97
2018-05-21T08:33:48.672Z,20.57
2018-05-21T08:36:52.000Z,20.93
2018-05-21T08:39:55.254Z,20.86
2018-05-21T08:42:58.610Z,20.76
2018-05-21T08:46:01.869Z,19.81
2018-05-21T08:49:05.134Z,19.81
2018-05-21T08:52:08.386Z,20.47
2018-05-21T08:55:12.484Z,19.14
2018-05-21T08:58:16.434Z,19.57
2018-05-21T09:01:20.535Z,20.25
2018-05-21T09:04:23.815Z,20.88
2018-05-21T09:07:27.173Z,21.33
2018-05-21T09:10:31.062Z,21.80
2018-05-21T09:13:34.341Z,21.99
2018-05-21T09:16:37.834Z,21.25
2018-05-21T09:19:41.929Z,21.31
2018-05-21T09:22:46.061Z,20.81
2018-05-21T09:25:50.528Z,21.15
2018-05-21T09:28:53.827Z,21.46
2018-05-21T09:31:57.203Z,21.04
2018-05-21T09:35:01.229Z,21.54
2018-05-21T09:38:04.521Z,21.51
2018-05-21T09:41:08.649Z,21.62
2018-05-21T09:44:12.687Z,21.60
2018-05-21T09:47:15.947Z,21.74
2018-05-21T09:50:19.240Z,22.07
2018-05-21T09:53:22.526Z,22.30
2018-05-21T09:56:26.559Z,22.01
2018-05-21T09:59:30.588Z,21.92
2018-05-21T10:02:34.616Z,22.39
2018-05-21T10:05:37.938Z,21.95
2018-05-21T10:08:41.225Z,22.07
2018-05-21T10:11:44.489Z,21.81
2018-05-21T10:14:47.814Z,22.19
2018-05-21T10:17:51.896Z,21.79
2018-05-21T10:20:55.720Z,21.84
2018-05-21T10:23:58.973Z,22.11
2018-05-21T10:27:02.241Z,22.26
2018-05-21T10:30:05.514Z,22.45
2018-05-21T10:33:08.930Z,22.45
2018-05-21T10:36:12.349Z,22.40
2018-05-21T10:39:15.601Z,22.57
2018-05-21T10:42:18.934Z,22.37
2018-05-21T10:45:22.182Z,22.57
2018-05-21T10:48:26.205Z,22.84
2018-05-21T10:51:30.321Z,22.26
2018-05-21T10:54:33.705Z,21.76
2018-05-21T10:57:37.010Z,22.35
2018-05-21T11:00:41.820Z,22.66
2018-05-21T11:03:45.106Z,22.82
2018-05-21T11:06:48.389Z,22.36
2018-05-21T11:09:52.426Z,22.20
2018-05-21T11:12:56.558Z,22.36
2018-05-21T11:15:59.903Z,21.86
2018-05-21T11:19:03.173Z,22.36
2018-05-21T11:22:06.493Z,22.77
2018-05-21T11:25:09.753Z,22.65
2018-05-21T11:28:13.241Z,22.78
2018-05-21T11:31:17.268Z,22.49
2018-05-21T11:34:20.528Z,22.29
2018-05-21T11:37:23.781Z,22.53
2018-05-21T11:40:27.042Z,22.95
2018-05-21T11:43:31.924Z,22.55
2018-05-21T11:46:35.258Z,22.36
2018-05-21T11:49:39.836Z,22.55
2018-05-21T11:52:46.084Z,22.44
2018-05-21T11:55:50.120Z,22.78
2018-05-21T11:58:53.396Z,23.13
2018-05-21T12:01:57.554Z,23.64
2018-05-21T12:05:00.835Z,23.96
2018-05-21T12:08:05.115Z,23.61
2018-05-21T12:11:08.415Z,23.68
2018-05-21T12:14:11.789Z,22.85
2018-05-21T12:17:15.089Z,23.24
2018-05-21T12:20:18.347Z,23.44
2018-05-21T12:23:21.611Z,23.80
2018-05-21T12:26:24.883Z,23.88
2018-05-21T12:29:28.277Z,23.93
2018-05-21T12:32:31.565Z,23.78
2018-05-21T12:35:35.022Z,23.31
2018-05-21T12:38:38.282Z,23.59
2018-05-21T12:41:42.322Z,23.08
2018-05-21T12:44:45.597Z,22.88
2018-05-21T12:47:49.725Z,23.33
2018-05-21T12:50:53.767Z,23.41
2018-05-21T12:53:57.031Z,22.96
2018-05-21T12:57:01.070Z,22.97
2018-05-21T13:00:04.387Z,23.47
2018-05-21T13:03:07.644Z,23.13
2018-05-21T13:06:11.006Z,23.69
2018-05-21T13:09:14.375Z,23.58
2018-05-21T13:12:17.634Z,23.83
2018-05-21T13:15:21.683Z,23.99
2018-05-21T13:18:25.680Z,24.15
2018-05-21T13:21:29.751Z,23.71
2018-05-21T13:24:33.048Z,23.73
2018-05-21T13:27:36.301Z,24.19
2018-05-21T13:30:40.339Z,23.39
2018-05-21T13:33:43.599Z,23.82
2018-05-21T13:36:46.868Z,23.84
2018-05-21T13:39:50.200Z,23.76
2018-05-21T13:42:53.548Z,23.05
2018-05-21T13:45:56.833Z,23.17
2018-05-21T13:49:00.890Z,23.26
2018-05-21T13:52:04.198Z,23.25
2018-05-21T13:55:07.510Z,23.48
2018-05-21T13:58:10.805Z,23.60
2018-05-21T14:01:14.151Z,23.60
2018-05-21T14:04:18.250Z,23.91
2018-05-21T14:07:21.498Z,23.23
2018-05-21T14:10:24.766Z,22.93
2018-05-21T14:13:28.883Z,22.78
2018-05-21T14:16:32.917Z,22.57
2018-05-21T14:19:36.165Z,22.53
2018-05-21T14:22:39.838Z,22.70
2018-05-21T14:25:43.103Z,22.50
2018-05-21T14:28:46.384Z,21.97
2018-05-21T14:31:49.640Z,21.36
2018-05-21T14:34:52.909Z,20.94
2018-05-21T14:37:56.205Z,20.68
2018-05-21T14:41:00.737Z,20.48
2018-05-21T14:44:06.283Z,20.16
2018-05-21T14:47:09.555Z,19.78
2018-05-21T14:50:12.997Z,19.43
2018-05-21T14:53:17.017Z,19.48
2018-05-21T14:56:21.099Z,19.37
2018-05-21T14:59:24.345Z,19.34
2018-05-21T15:02:29.277Z,19.28
2018-05-21T15:05:33.308Z,19.11
2018-05-21T15:08:36.560Z,19.04
2018-05-21T15:11:39.834Z,18.84
2018-05-21T15:14:43.091Z,18.93
2018-05-21T15:17:47.244Z,18.73
2018-05-21T15:20:50.553Z,18.76
2018-05-21T15:23:53.878Z,18.75
2018-05-21T15:26:57.968Z,18.61
2018-05-21T15:30:01.243Z,18.48
2018-05-21T15:33:04.558Z,18.06
2018-05-21T15:36:07.904Z,18.05
2018-05-21T15:39:11.950Z,18.18
2018-05-21T15:42:16.002Z,18.21
2018-05-21T15:45:19.259Z,18.01
2018-05-21T15:48:23.561Z,18.14
2018-05-21T15:51:27.344Z,18.28
2018-05-21T15:54:30.704Z,17.95
2018-05-21T15:57:34.141Z,17.83
2018-05-21T16:00:37.418Z,17.66
2018-05-21T16:03:40.723Z,17.65
2018-05-21T16:06:44.113Z,17.65
2018-05-21T16:09:47.499Z,17.73
2018-05-21T16:12:51.522Z,17.51
2018-05-21T16:15:54.811Z,17.53
2018-05-21T16:18:58.836Z,17.78
2018-05-21T16:22:02.392Z,18.01
2018-05-21T16:25:05.743Z,17.97
2018-05-21T16:28:09.089Z,18.10
2018-05-21T16:31:12.397Z,18.14
2018-05-21T16:34:16.364Z,17.93
2018-05-21T16:37:19.802Z,17.81
2018-05-21T16:40:23.073Z,17.57
2018-05-21T16:43:26.397Z,17.01
2018-05-21T16:46:29.653Z,16.99
2018-05-21T16:49:33.893Z,17.15
2018-05-21T16:52:37.198Z,17.40
2018-05-21T16:55:40.536Z,17.44
2018-05-21T16:58:44.792Z,17.56
2018-05-21T17:01:48.821Z,17.69
2018-05-21T17:04:52.838Z,17.78
2018-05-21T17:07:56.139Z,17.70
2018-05-21T17:11:00.285Z,18.03
2018-05-21T17:14:03.691Z,17.97
2018-05-21T17:17:06.887Z,18.12
2018-05-21T17:20:10.268Z,18.12
2018-05-21T17:23:13.569Z,18.24
2018-05-21T17:26:17.014Z,18.18
2018-05-21T17:29:20.275Z,18.31
2018-05-21T17:32:23.528Z,18.26
2018-05-21T17:35:26.888Z,18.10
2018-05-21T17:38:30.205Z,18.36
2018-05-21T17:41:33.549Z,18.24
2018-05-21T17:44:37.639Z,18.25
2018-05-21T17:47:41.989Z,17.88
2018-05-21T17:50:46.008Z,17.98
2018-05-21T17:53:49.279Z,18.08
2018-05-21T17:56:53.313Z,17.93
2018-05-21T17:59:57.343Z,17.76
2018-05-21T18:03:00.602Z,17.72
2018-05-21T18:06:03.975Z,17.66
2018-05-21T18:09:07.246Z,17.71
2018-05-21T18:12:10.519Z,17.62
2018-05-21T18:15:14.660Z,17.36
2018-05-21T18:18:18.153Z,17.14
2018-05-21T18:21:21.506Z,17.05
2018-05-21T18:24:25.638Z,17.02
2018-05-21T18:27:28.967Z,16.91
2018-05-21T18:30:33.090Z,16.75
2018-05-21T18:33:36.738Z,16.61
2018-05-21T18:36:40.066Z,16.35
2018-05-21T18:39:43.318Z,16.24
2018-05-21T18:42:46.603Z,16.13
2018-05-21T18:45:49.891Z,16.12
2018-05-21T18:48:53.923Z,15.99
2018-05-21T18:51:57.209Z,15.63
2018-05-21T18:55:00.477Z,15.57
2018-05-21T18:58:03.778Z,15.40
2018-05-21T19:01:07.822Z,15.29
2018-05-21T19:04:11.871Z,15.16
2018-05-21T19:07:15.131Z,15.13
2018-05-21T19:10:18.755Z,15.06
2018-05-21T19:13:22.877Z,15.04
2018-05-21T19:16:26.927Z,14.94
2018-05-21T19:19:30.205Z,14.94
2018-05-21T19:22:34.247Z,14.86
2018-05-21T19:25:37.540Z,14.75
2018-05-21T19:28:41.029Z,14.74
2018-05-21T19:31:45.063Z,14.72
2018-05-21T19:34:48.327Z,14.67
2018-05-21T19:37:53.170Z,14.60
2018-05-21T19:40:56.493Z,14.57
2018-05-21T19:44:00.576Z,14.29
2018-05-21T19:47:03.840Z,14.21
2018-05-21T19:50:07.257Z,14.25
2018-05-21T19:53:10.563Z,14.24
2018-05-21T19:56:13.813Z,14.21
2018-05-21T19:59:17.846Z,14.21
2018-05-21T20:02:21.869Z,14.21
2018-05-21T20:05:25.374Z,14.08
2018-05-21T20:08:28.706Z,14.07
2018-05-21T20:11:32.262Z,14.04
2018-05-21T20:14:36.278Z,14.02
2018-05-21T20:17:39.544Z,14.02
2018-05-21T20:20:43.964Z,14.01
2018-05-21T20:23:47.226Z,14.04
2018-05-21T20:26:50.517Z,13.96
2018-05-21T20:29:53.802Z,13.91
2018-05-21T20:32:57.831Z,13.89
2018-05-21T20:36:01.104Z,13.81
2018-05-21T20:39:06.746Z,13.69
2018-05-21T20:42:11.100Z,13.60
2018-05-21T20:45:14.380Z,13.62
2018-05-21T20:48:17.896Z,13.46
2018-05-21T20:51:21.176Z,13.40
2018-05-21T20:54:24.493Z,13.46
2018-05-21T20:57:28.679Z,13.40
2018-05-21T21:00:32.238Z,13.36
2018-05-21T21:03:35.521Z,13.30
2018-05-21T21:06:38.772Z,13.35
2018-05-21T21:09:42.211Z,13.27
2018-05-21T21:12:46.119Z,13.16
2018-05-21T21:15:54.324Z,13.09
2018-05-21T21:18:57.597Z,13.09
2018-05-21T21:22:00.886Z,13.17
2018-05-21T21:25:04.158Z,13.10
2018-05-21T21:28:07.416Z,12.99
2018-05-21T21:31:10.832Z,13.05
2018-05-21T21:34:14.861Z,12.98
2018-05-21T21:37:18.109Z,12.95
2018-05-21T21:40:21.369Z,12.90
2018-05-21T21:43:24.639Z,12.80
2018-05-21T21:46:27.949Z,12.72
2018-05-21T21:49:31.242Z,12.71
2018-05-21T21:52:34.536Z,12.65
2018-05-21T21:55:38.590Z,12.60
2018-05-21T21:58:41.833Z,12.59
2018-05-21T22:01:45.897Z,12.53
2018-05-21T22:04:49.145Z,12.48
2018-05-21T22:07:53.183Z,12.41
2018-05-21T22:10:56.459Z,12.39
2018-05-21T22:14:00.485Z,12.43
2018-05-21T22:17:03.778Z,12.31
2018-05-21T22:20:07.796Z,12.20
2018-05-21T22:23:11.824Z,12.26
2018-05-21T22:26:15.164Z,12.34
2018-05-21T22:29:18.424Z,12.24
2018-05-21T22:32:21.668Z,12.20
2018-05-21T22:35:25.707Z,12.13
2018-05-21T22:38:29.820Z,12.12
2018-05-21T22:41:33.906Z,12.03
2018-05-21T22:44:41.996Z,12.05
2018-05-21T22:47:45.265Z,12.12
2018-05-21T22:50:48.557Z,12.00
2018-05-21T22:53:52.611Z,12.06
2018-05-21T22:56:55.990Z,12.05
2018-05-21T22:59:59.253Z,11.84
2018-05-21T23:03:02.519Z,11.77
2018-05-21T23:06:05.797Z,11.74
2018-05-21T23:09:09.055Z,11.77
2018-05-21T23:12:13.178Z,11.75
2018-05-21T23:15:16.440Z,11.70
2018-05-21T23:18:19.727Z,11.65
2018-05-21T23:21:22.985Z,11.60
2018-05-21T23:24:26.234Z,11.54
2018-05-21T23:27:29.522Z,11.57
2018-05-21T23:30:32.861Z,11.54
2018-05-21T23:33:36.877Z,11.53
2018-05-21T23:36:40.906Z,11.57
2018-05-21T23:39:44.188Z,11.46
2018-05-21T23:42:48.201Z,11.21
2018-05-21T23:45:51.616Z,11.00
2018-05-21T23:48:54.868Z,11.16
2018-05-21T23:51:58.125Z,11.21
2018-05-21T23:55:01.398Z,11.16
2018-05-21T23:58:04.658Z,11.22
